Lanai City, Hawaii
Current Conditions -  °F | °C
As of 11:56 PM on Sunday 25 Jan 2015 (Local Time) from PHNY Reporting Station
Clear Clear  
Wind Chill: 64°   Ceiling: Unl
Heat Index: 64°   Visibility: 10mi
Dew Point: 64°   Wind: 24mph
Humidity: 100%   Direction: 40°NE
Pressure: 30.02"   Gusts: 32mph
Location:  20.82°N, 156.91°W
Report Text: PHNY 260956Z AUTO 04021G28KT 10SM CLR 18/18 A3002 RMK AO2 TSNO T01770177 402330177 PK WND 04029/0930 SLP148 $
Loading
Personal Weather Stations






























Interactive Weather Map New forecast layout! Learn more

10-Day Weather Forecast

Advertisements
Track Severe Weather on mobile